Alpena, Michigan
Current Conditions -  °F | °C
As of 6:54 AM on Wednesday 28 Jan 2015 (Local Time) from KAPN Reporting Station
Clear Clear  
Wind Chill: -2°   Ceiling: Unl
Heat Index: -2°   Visibility: 10mi
Dew Point: -8°   Wind: 0mph
Humidity: 76%   Direction: NA
Pressure: 30.3"   Gusts: NA
Location:  45.06°N, 83.44°W
Report Text: KAPN 281154Z AUTO 00000KT 10SM CLR M19/M22 A3030 RMK AO2 SLP280 I6000 T11891222 11178 21206 51011 $
Loading
Personal Weather Stations






























Interactive Weather Map New forecast layout! Learn more

10-Day Weather Forecast

Advertisements
Track Severe Weather on mobile